Time;durP1;ratioP1;P1;durP2;ratioP2;P2;SDS_P1;SDS_P2;PMS_P1;PMS_P2;Temp;Humidity;BMP_temperature;BMP_pressure;BME280_temperature;BME280_humidity;BME280_pressure;Samples;Min_cycle;Max_cycle;Signal;HPM_P1;HPM_P2
2022/07/04 00:02:18;;;;;;;6.30;4.70;;;;;;;22.27;62.50;100322.12;1478120;87;21453;-86
2022/07/04 00:04:45;;;;;;;12.80;5.47;;;;;;;22.31;62.14;100307.12;1479371;87;21438;-86
2022/07/04 00:07:12;;;;;;;6.85;5.00;;;;;;;22.38;61.91;100314.58;1453046;87;23426;-86
2022/07/04 00:09:40;;;;;;;6.67;4.42;;;;;;;22.34;61.84;100314.75;1484275;86;21513;-87
2022/07/04 00:12:08;;;;;;;10.75;4.92;;;;;;;22.27;61.68;100314.03;1480039;86;21366;-87
2022/07/04 00:14:36;;;;;;;5.30;4.80;;;;;;;22.27;61.65;100317.55;1484981;86;21411;-87
2022/07/04 00:17:03;;;;;;;8.78;4.65;;;;;;;22.28;61.85;100308.39;1476792;86;21382;-86
2022/07/04 00:19:31;;;;;;;11.45;4.87;;;;;;;22.28;62.15;100314.31;1489915;86;21932;-86
2022/07/04 00:21:59;;;;;;;9.50;5.80;;;;;;;22.28;61.86;100311.63;1483415;86;21367;-87
2022/07/04 00:24:26;;;;;;;6.40;5.70;;;;;;;22.26;61.98;100317.75;1485067;87;21389;-86
2022/07/04 00:26:53;;;;;;;9.50;4.80;;;;;;;22.29;61.79;100314.61;1484348;86;21337;-87
2022/07/04 00:29:20;;;;;;;7.03;4.80;;;;;;;22.31;62.02;100304.42;1483485;86;21425;-87
2022/07/04 00:31:48;;;;;;;8.73;5.42;;;;;;;22.29;62.02;100311.91;1480085;87;22023;-86
2022/07/04 00:34:15;;;;;;;5.35;4.65;;;;;;;22.26;62.03;100310.48;1478617;87;21574;-87
2022/07/04 00:36:48;;;;;;;13.35;5.50;;;;;;;22.23;62.57;100298.81;1480477;87;21550;-87
2022/07/04 00:39:16;;;;;;;6.15;4.60;;;;;;;22.16;63.05;100296.71;1456214;87;21484;-87
2022/07/04 00:41:43;;;;;;;8.53;5.35;;;;;;;22.11;62.72;100301.14;1468940;87;21619;-86
2022/07/04 00:44:13;;;;;;;8.20;4.50;;;;;;;22.09;62.67;100304.05;1466226;87;22602;-87
2022/07/04 00:46:42;;;;;;;6.70;4.60;;;;;;;22.05;62.91;100299.64;1479160;87;21654;-87
2022/07/04 00:49:11;;;;;;;6.05;5.33;;;;;;;22.03;62.78;100300.38;1478754;87;21370;-86
2022/07/04 00:51:41;;;;;;;5.50;4.63;;;;;;;21.96;63.16;100301.00;1572786;86;21221;-87
2022/07/04 00:54:18;;;;;;;7.67;5.67;;;;;;;21.88;63.24;100299.13;1483499;86;21940;-84
2022/07/04 00:56:46;;;;;;;10.00;5.42;;;;;;;21.84;63.45;100298.77;1462237;87;21300;-83
2022/07/04 00:59:13;;;;;;;6.85;5.03;;;;;;;21.82;63.16;100292.77;1468263;87;21506;-87
2022/07/04 01:01:41;;;;;;;9.08;4.92;;;;;;;21.78;63.15;100298.29;1473818;86;21478;-86
2022/07/04 01:04:08;;;;;;;6.83;5.00;;;;;;;21.73;63.36;100288.73;1464801;87;22365;-86
2022/07/04 01:06:36;;;;;;;9.83;4.78;;;;;;;21.70;63.37;100291.35;1477570;87;22009;-87
2022/07/04 01:09:05;;;;;;;7.50;5.12;;;;;;;21.63;63.87;100284.67;1451895;87;21345;-87
2022/07/04 01:11:32;;;;;;;8.25;5.75;;;;;;;21.61;63.93;100292.17;1493869;87;21469;-87
2022/07/04 01:14:02;;;;;;;9.73;4.95;;;;;;;21.56;64.59;100290.66;1474413;87;21432;-87
2022/07/04 01:16:29;;;;;;;8.03;5.22;;;;;;;21.52;64.84;100282.74;1448064;86;21484;-87
2022/07/04 01:18:56;;;;;;;5.47;4.97;;;;;;;21.48;65.23;100287.44;1480375;86;22578;-86
2022/07/04 01:21:25;;;;;;;8.55;5.17;;;;;;;21.38;65.60;100282.58;1476469;86;21426;-86
2022/07/04 01:23:52;;;;;;;7.08;5.22;;;;;;;21.34;65.50;100278.10;1475413;87;21389;-87
2022/07/04 01:26:20;;;;;;;8.03;6.03;;;;;;;21.27;66.20;100280.05;1475526;86;21536;-87
2022/07/04 01:28:48;;;;;;;5.87;5.00;;;;;;;21.17;66.09;100280.53;1473283;88;21573;-87
2022/07/04 01:31:15;;;;;;;5.75;5.08;;;;;;;21.09;66.30;100278.64;1475346;88;21396;-87
2022/07/04 01:33:42;;;;;;;8.50;5.12;;;;;;;21.01;65.92;100282.45;1475405;87;22060;-87
2022/07/04 01:36:10;;;;;;;8.68;5.65;;;;;;;20.93;65.71;100279.50;1476367;87;21552;-88
2022/07/04 01:38:42;;;;;;;9.68;5.55;;;;;;;20.81;66.06;100276.41;1473745;87;23785;-87
2022/07/04 01:41:09;;;;;;;10.45;5.30;;;;;;;20.73;66.33;100278.83;1476318;87;21540;-87
2022/07/04 01:43:36;;;;;;;5.83;5.22;;;;;;;20.63;66.79;100279.33;1473731;87;22067;-87
2022/07/04 01:46:04;;;;;;;13.40;6.20;;;;;;;20.59;66.71;100275.41;1473579;88;21573;-85
2022/07/04 01:48:34;;;;;;;5.33;4.83;;;;;;;20.56;66.58;100274.50;1474557;88;21625;-85
2022/07/04 01:51:01;;;;;;;9.85;5.30;;;;;;;20.54;66.40;100277.91;1456441;88;21499;-85
2022/07/04 01:53:28;;;;;;;9.65;5.80;;;;;;;20.51;66.40;100283.69;1473810;87;21606;-86
2022/07/04 01:55:55;;;;;;;14.30;5.80;;;;;;;20.47;67.06;100280.62;1471828;88;21927;-86
2022/07/04 01:58:22;;;;;;;10.15;5.75;;;;;;;20.47;67.02;100279.80;1475321;88;21530;-87
2022/07/04 02:03:36;;;;;;;8.97;5.53;;;;;;;20.35;68.38;100284.22;1478167;88;21433;-87
2022/07/04 02:06:04;;;;;;;9.68;5.42;;;;;;;20.29;68.12;100286.72;1473914;87;22658;-86
2022/07/04 02:11:18;;;;;;;9.28;5.50;;;;;;;20.17;69.47;100291.13;1475731;88;22793;-86
2022/07/04 02:13:45;;;;;;;8.00;5.07;;;;;;;20.12;69.61;100286.09;1473069;88;21640;-86
2022/07/04 02:16:12;;;;;;;10.40;5.60;;;;;;;20.12;69.28;100291.47;1478179;87;21382;-86
2022/07/04 02:18:39;;;;;;;6.77;5.60;;;;;;;20.12;69.51;100285.56;1479629;88;21946;-86
2022/07/04 02:21:07;;;;;;;8.05;4.70;;;;;;;20.13;69.55;100291.23;1477303;87;21602;-86
2022/07/04 02:23:35;;;;;;;10.13;4.97;;;;;;;20.12;69.37;100286.09;1475927;88;21330;-86
2022/07/04 02:26:02;;;;;;;6.03;4.73;;;;;;;20.09;69.51;100292.72;1477497;88;21493;-85
2022/07/04 02:28:29;;;;;;;6.73;5.07;;;;;;;20.00;70.20;100284.07;1472244;87;21589;-87
2022/07/04 02:30:57;;;;;;;9.13;6.33;;;;;;;19.89;70.01;100296.00;1480457;87;21572;-86
2022/07/04 02:33:24;;;;;;;9.17;5.93;;;;;;;19.85;70.24;100295.57;1480901;87;21395;-86
2022/07/04 02:35:51;;;;;;;11.43;5.63;;;;;;;19.86;70.27;100296.42;1478254;88;21944;-86
2022/07/04 02:38:18;;;;;;;7.07;5.50;;;;;;;19.80;70.84;100290.86;1482081;88;21485;-86
2022/07/04 02:40:45;;;;;;;7.10;5.40;;;;;;;19.74;70.96;100294.39;1476530;88;21604;-86
2022/07/04 02:43:12;;;;;;;14.10;6.93;;;;;;;19.69;70.58;100286.13;1474821;87;21603;-86
2022/07/04 02:45:39;;;;;;;9.27;5.10;;;;;;;19.60;70.67;100294.08;1475840;88;21591;-87
2022/07/04 02:48:06;;;;;;;6.97;5.17;;;;;;;19.49;71.36;100298.22;1480239;88;22438;-86
2022/07/04 02:50:34;;;;;;;8.17;5.33;;;;;;;19.47;71.26;100302.15;1473232;87;21713;-86
2022/07/04 02:53:01;;;;;;;6.30;5.40;;;;;;;19.46;72.08;100308.56;1461598;86;21633;-88
2022/07/04 02:55:28;;;;;;;11.40;5.80;;;;;;;19.43;71.76;100308.45;1470304;86;21710;-88
2022/07/04 02:57:56;;;;;;;7.30;5.40;;;;;;;19.38;71.92;100305.05;1454369;89;22381;-87
2022/07/04 03:00:23;;;;;;;7.43;5.30;;;;;;;19.37;71.87;100299.38;1455040;89;21404;-88
2022/07/04 03:02:50;;;;;;;6.50;5.90;;;;;;;19.33;71.62;100303.52;1456918;89;21304;-86
2022/07/04 03:05:17;;;;;;;7.57;6.47;;;;;;;19.23;71.63;100303.10;1419334;90;21404;-86
2022/07/04 03:07:45;;;;;;;7.90;5.67;;;;;;;19.19;72.08;100310.42;1460365;88;21848;-86
2022/07/04 03:10:12;;;;;;;8.90;5.77;;;;;;;19.20;71.91;100314.25;1418069;91;22545;-86
2022/07/04 03:12:40;;;;;;;7.73;5.63;;;;;;;19.21;71.95;100310.52;1481356;87;22438;-87
2022/07/04 03:15:08;;;;;;;7.07;5.23;;;;;;;19.21;72.71;100297.11;1482627;87;22425;-86
2022/07/04 03:17:35;;;;;;;8.03;5.60;;;;;;;19.18;72.72;100302.89;1473843;87;21654;-87
2022/07/04 03:20:03;;;;;;;10.93;6.10;;;;;;;19.18;72.70;100302.08;1491905;86;21501;-87
2022/07/04 03:22:31;;;;;;;8.27;5.77;;;;;;;19.16;72.79;100301.78;1492645;86;21404;-86
2022/07/04 03:24:59;;;;;;;9.40;6.40;;;;;;;19.15;73.17;100301.97;1495087;86;21507;-87
2022/07/04 03:27:26;;;;;;;7.83;6.17;;;;;;;19.20;72.94;100314.25;1486654;86;21670;-87
2022/07/04 03:29:53;;;;;;;8.87;6.30;;;;;;;19.24;73.31;100311.45;1470999;87;22343;-88
2022/07/04 03:32:21;;;;;;;9.90;5.77;;;;;;;19.28;73.98;100318.07;1481884;86;21397;-87
2022/07/04 03:34:49;;;;;;;7.93;5.70;;;;;;;19.32;73.78;100318.48;1484283;87;21382;-88
2022/07/04 03:37:16;;;;;;;11.27;6.17;;;;;;;19.39;73.68;100322.81;1496937;86;21449;-85
2022/07/04 03:39:44;;;;;;;24.93;6.07;;;;;;;19.46;73.86;100322.80;1485997;87;21337;-84
2022/07/04 03:42:11;;;;;;;12.07;7.00;;;;;;;19.54;73.54;100317.73;1495336;86;21470;-85
2022/07/04 03:44:38;;;;;;;8.93;5.70;;;;;;;19.55;73.16;100323.41;1494966;86;23680;-86
2022/07/04 03:47:07;;;;;;;14.10;6.50;;;;;;;19.58;72.92;100324.33;1482058;86;21877;-85
2022/07/04 03:49:34;;;;;;;14.67;6.40;;;;;;;19.56;73.60;100330.41;1477899;87;22571;-84
2022/07/04 03:52:02;;;;;;;8.45;6.42;;;;;;;19.54;73.12;100326.61;1479372;86;22755;-85
2022/07/04 03:54:29;;;;;;;7.03;6.33;;;;;;;19.60;73.02;100325.77;1477459;86;21541;-85
2022/07/04 03:56:56;;;;;;;16.47;6.83;;;;;;;19.55;72.84;100327.43;1502224;86;21559;-85
2022/07/04 03:59:24;;;;;;;7.00;6.30;;;;;;;19.52;72.65;100329.19;1489217;87;21581;-86
2022/07/04 04:01:51;;;;;;;14.60;5.90;;;;;;;19.53;72.94;100332.17;1501397;87;21515;-87
2022/07/04 04:07:04;;;;;;;12.68;6.42;;;;;;;19.69;73.13;100339.83;1446523;87;22255;-91
2022/07/04 04:09:33;;;;;;;11.43;6.30;;;;;;;19.76;72.85;100343.31;1493814;86;21550;-92
2022/07/04 04:12:00;;;;;;;11.23;6.07;;;;;;;19.87;72.83;100347.22;1475714;87;22842;-92
2022/07/04 04:14:27;;;;;;;15.72;6.47;;;;;;;19.93;72.64;100353.61;1478059;87;21581;-92
2022/07/04 04:17:01;;;;;;;13.88;6.45;;;;;;;19.99;72.33;100343.36;1455320;87;21447;-92
2022/07/04 04:19:28;;;;;;;16.57;6.58;;;;;;;20.09;72.14;100347.78;1480348;87;21374;-92
2022/07/04 04:21:56;;;;;;;14.05;6.97;;;;;;;20.18;72.23;100336.28;1488921;86;22380;-91
2022/07/04 04:24:23;;;;;;;6.97;6.28;;;;;;;20.28;72.09;100349.58;1476899;87;23309;-91
2022/07/04 04:26:50;;;;;;;13.00;6.65;;;;;;;20.39;72.21;100337.84;1494398;87;21465;-92
2022/07/04 04:29:18;;;;;;;9.00;6.62;;;;;;;20.47;71.85;100336.25;1491730;86;21640;-92
2022/07/04 04:31:47;;;;;;;14.03;6.92;;;;;;;20.56;71.98;100334.98;1493071;87;23299;-92
2022/07/04 04:34:14;;;;;;;15.32;7.37;;;;;;;20.67;71.63;100342.37;1493267;87;22262;-92
2022/07/04 04:36:44;;;;;;;14.70;6.90;;;;;;;20.80;71.38;100343.32;1468070;87;22461;-91
2022/07/04 04:39:11;;;;;;;12.10;6.67;;;;;;;20.92;71.07;100328.16;1463769;87;22290;-92
2022/07/04 04:41:38;;;;;;;10.13;6.87;;;;;;;20.98;70.57;100329.97;1481817;87;21509;-92
2022/07/04 04:44:05;;;;;;;17.50;8.78;;;;;;;21.09;70.58;100329.27;1481142;87;21533;-92
2022/07/04 04:46:36;;;;;;;9.45;6.78;;;;;;;21.26;70.48;100339.47;1481806;87;21359;-92
2022/07/04 04:49:03;;;;;;;13.20;6.47;;;;;;;21.34;69.73;100340.54;1460214;87;21500;-92
2022/07/04 04:51:31;;;;;;;11.80;7.10;;;;;;;21.44;69.67;100335.52;1479733;87;22422;-92
2022/07/04 04:53:58;;;;;;;10.45;7.30;;;;;;;21.58;69.42;100336.23;1482430;87;21426;-92
2022/07/04 04:56:27;;;;;;;12.00;6.85;;;;;;;21.73;69.01;100334.52;1476924;87;22387;-91
2022/07/04 04:58:55;;;;;;;8.90;8.00;;;;;;;21.85;68.41;100338.11;1458941;87;22429;-91
2022/07/04 05:01:28;;;;;;;11.35;7.10;;;;;;;21.94;67.67;100338.64;1458930;87;21411;-93
2022/07/04 05:03:56;;;;;;;9.38;7.15;;;;;;;22.03;68.01;100338.63;1481116;87;21530;-93
2022/07/04 05:06:23;;;;;;;8.38;6.83;;;;;;;22.15;67.65;100338.70;1478437;87;21353;-93
2022/07/04 05:08:51;;;;;;;9.38;7.10;;;;;;;22.24;67.47;100335.52;1473330;87;22394;-92
2022/07/04 05:11:18;;;;;;;11.97;7.40;;;;;;;22.37;66.83;100332.34;1489198;87;21360;-92
2022/07/04 05:13:45;;;;;;;12.33;7.62;;;;;;;22.48;66.77;100327.00;1489643;87;21404;-92
2022/07/04 05:16:14;;;;;;;12.63;7.08;;;;;;;22.54;66.14;100327.97;1489607;87;21486;-91
2022/07/04 05:18:43;;;;;;;14.05;7.85;;;;;;;22.65;66.11;100327.19;1486430;87;21537;-93
2022/07/04 05:21:10;;;;;;;8.57;7.63;;;;;;;22.77;65.86;100329.92;1480759;87;21390;-93
2022/07/04 05:23:37;;;;;;;11.25;7.58;;;;;;;23.02;65.29;100310.89;1443624;87;22357;-93
2022/07/04 05:26:05;;;;;;;8.15;7.28;;;;;;;23.02;65.29;100310.89;1475069;87;21552;-92
2022/07/04 05:28:32;;;;;;;9.93;7.58;;;;;;;23.11;64.20;100318.94;1481322;87;21463;-92
2022/07/04 05:31:00;;;;;;;14.78;7.85;;;;;;;23.20;64.71;100323.47;1460926;87;21419;-91
2022/07/04 05:33:29;;;;;;;12.35;7.70;;;;;;;23.28;64.17;100319.61;1445909;89;21529;-91
2022/07/04 05:35:56;;;;;;;10.48;7.30;;;;;;;23.41;64.14;100323.41;1424500;89;21443;-90
2022/07/04 05:38:27;;;;;;;10.18;7.58;;;;;;;23.53;63.57;100313.95;1421778;89;21492;-92
2022/07/04 05:40:55;;;;;;;11.97;7.78;;;;;;;23.62;63.37;100320.13;1455835;89;21604;-93
2022/07/04 05:43:25;;;;;;;9.48;7.28;;;;;;;23.66;62.71;100319.13;1470182;88;21501;-92
2022/07/04 05:45:58;;;;;;;9.95;7.58;;;;;;;23.67;62.59;100312.65;1449746;89;21655;-93
2022/07/04 05:48:25;;;;;;;11.50;8.45;;;;;;;23.73;62.60;100315.78;1418535;88;22358;-93
2022/07/04 05:50:53;;;;;;;10.90;7.30;;;;;;;23.93;62.52;100318.64;1415914;90;21405;-92
2022/07/04 05:53:23;;;;;;;12.90;8.25;;;;;;;24.09;62.33;100315.20;1490712;86;23146;-92
2022/07/04 05:55:51;;;;;;;11.33;7.37;;;;;;;24.06;61.47;100314.33;1497440;86;22659;-93
2022/07/04 05:58:20;;;;;;;24.05;8.33;;;;;;;24.06;61.12;100306.22;1484238;86;22787;-93
2022/07/04 06:00:48;;;;;;;12.55;7.35;;;;;;;24.19;61.38;100301.05;1449362;87;21381;-93
2022/07/04 06:03:15;;;;;;;14.60;7.42;;;;;;;24.31;61.32;100303.17;1500124;86;22807;-93
2022/07/04 06:05:44;;;;;;;15.32;7.97;;;;;;;24.51;61.20;100301.41;1471002;86;21699;-93
2022/07/04 06:08:11;;;;;;;11.73;8.73;;;;;;;24.67;60.26;100302.52;1498408;86;22336;-93
2022/07/04 06:10:39;;;;;;;20.10;9.10;;;;;;;24.72;59.97;100306.14;1473967;86;21411;-92
2022/07/04 06:13:06;;;;;;;8.88;7.40;;;;;;;24.75;59.68;100316.48;1491503;86;22472;-92
2022/07/04 06:15:36;;;;;;;13.08;7.92;;;;;;;24.81;59.43;100323.34;1487010;87;21338;-92
2022/07/04 06:18:03;;;;;;;19.23;8.73;;;;;;;24.93;59.39;100322.19;1462571;86;22497;-94
2022/07/04 06:20:31;;;;;;;11.35;7.30;;;;;;;25.12;59.12;100322.78;1492106;86;23032;-90
2022/07/04 06:23:01;;;;;;;10.23;7.37;;;;;;;25.33;59.17;100312.30;1491240;86;23246;-92
2022/07/04 06:25:28;;;;;;;12.20;7.47;;;;;;;25.55;58.43;100315.03;1479978;86;21425;-91
2022/07/04 06:27:55;;;;;;;14.98;7.30;;;;;;;25.64;57.42;100309.50;1487146;86;21588;-93
2022/07/04 06:30:23;;;;;;;15.13;6.92;;;;;;;25.80;57.32;100308.61;1468454;86;21417;-91
2022/07/04 06:32:56;;;;;;;13.13;8.35;;;;;;;25.92;56.70;100311.77;1483269;86;22629;-91
2022/07/04 06:35:47;;;;;;;9.28;6.72;;;;;;;26.13;56.98;100306.08;1531137;86;22417;-91
2022/07/04 06:38:21;;;;;;;14.38;6.70;;;;;;;26.24;56.39;100305.09;1504654;86;21462;-94
2022/07/04 06:40:52;;;;;;;20.43;7.75;;;;;;;26.39;56.10;100308.00;1505430;86;21441;-94
2022/07/04 06:43:20;;;;;;;11.60;6.55;;;;;;;26.58;56.27;100304.95;1595281;86;21308;-93
2022/07/04 06:45:47;;;;;;;11.15;6.45;;;;;;;26.71;55.47;100315.40;1493342;87;21397;-94
2022/07/04 06:48:14;;;;;;;16.20;6.65;;;;;;;26.86;55.03;100310.09;1478608;87;21885;-94
2022/07/04 06:50:42;;;;;;;11.95;6.58;;;;;;;27.03;54.05;100314.59;1481004;87;22726;-93
2022/07/04 06:53:11;;;;;;;10.85;5.90;;;;;;;27.18;53.51;100309.30;1491758;87;21286;-93
2022/07/04 06:55:42;;;;;;;21.03;6.27;;;;;;;27.13;52.95;100308.70;1489339;87;21485;-93
2022/07/04 06:58:10;;;;;;;13.05;5.55;;;;;;;27.28;52.97;100310.73;1475937;86;22341;-93
2022/07/04 07:00:38;;;;;;;12.55;5.90;;;;;;;27.45;52.93;100310.04;1482459;87;21514;-93
2022/07/04 07:03:09;;;;;;;21.23;6.85;;;;;;;27.55;52.12;100307.09;1459108;87;21359;-93
2022/07/04 07:05:36;;;;;;;16.73;5.92;;;;;;;27.56;52.19;100303.28;1481907;87;21509;-93
2022/07/04 07:08:05;;;;;;;12.82;6.25;;;;;;;27.71;51.61;100300.67;1477983;87;21465;-90
2022/07/04 07:10:32;;;;;;;11.95;5.90;;;;;;;27.88;51.94;100302.68;1483025;87;22592;-92
2022/07/04 07:13:00;;;;;;;16.02;6.60;;;;;;;27.97;51.44;100299.45;1457011;87;21387;-93
2022/07/04 07:15:27;;;;;;;11.38;6.25;;;;;;;28.15;51.12;100306.31;1460592;87;22403;-92
2022/07/04 07:17:55;;;;;;;7.42;5.62;;;;;;;28.24;50.35;100304.16;1487225;87;21375;-93
2022/07/04 07:20:22;;;;;;;15.95;5.20;;;;;;;28.40;50.12;100310.98;1489494;87;21515;-92
2022/07/04 07:22:49;;;;;;;10.32;6.15;;;;;;;28.55;49.40;100304.27;1473868;87;22431;-93
2022/07/04 07:25:16;;;;;;;12.60;5.20;;;;;;;28.58;48.44;100302.36;1455480;88;21463;-93
2022/07/04 07:27:44;;;;;;;15.83;5.20;;;;;;;28.45;46.29;100300.15;1448884;87;21575;-92
2022/07/04 07:30:12;;;;;;;15.65;5.42;;;;;;;28.61;47.45;100303.18;1473235;87;22291;-93
2022/07/04 07:32:39;;;;;;;16.95;5.08;;;;;;;28.67;46.23;100303.45;1481494;86;21389;-93
2022/07/04 07:35:07;;;;;;;20.62;6.17;;;;;;;28.86;46.94;100302.91;1459355;88;21581;-93
2022/07/04 07:37:35;;;;;;;9.43;4.92;;;;;;;29.05;46.85;100308.67;1479558;88;21382;-94
2022/07/04 07:40:04;;;;;;;7.22;4.80;;;;;;;29.19;46.36;100303.75;1470332;87;23210;-92
2022/07/04 07:42:32;;;;;;;7.80;4.58;;;;;;;29.28;45.55;100300.47;1495631;86;22883;-92
2022/07/04 07:45:00;;;;;;;14.35;4.62;;;;;;;29.35;45.39;100299.66;1465710;87;22683;-92
2022/07/04 07:47:31;;;;;;;8.45;4.42;;;;;;;29.51;44.93;100297.14;1481317;86;21404;-94
2022/07/04 07:49:58;;;;;;;11.28;4.95;;;;;;;29.62;44.27;100293.33;1477639;88;22461;-93
2022/07/04 07:52:25;;;;;;;11.88;5.00;;;;;;;29.81;43.88;100299.56;1492982;86;22505;-92
2022/07/04 07:54:53;;;;;;;9.53;5.03;;;;;;;29.93;43.03;100304.14;1453017;88;21316;-92
2022/07/04 07:57:20;;;;;;;15.40;4.12;;;;;;;30.06;43.09;100298.05;1438571;87;21418;-92
2022/07/04 07:59:48;;;;;;;17.57;5.05;;;;;;;30.08;41.10;100298.60;1488982;87;21375;-92
2022/07/04 08:02:15;;;;;;;12.75;4.60;;;;;;;30.16;41.56;100297.20;1447410;87;22780;-93
2022/07/04 08:04:42;;;;;;;17.30;4.75;;;;;;;30.29;41.41;100299.88;1486016;87;22500;-94
2022/07/04 08:07:14;;;;;;;9.30;4.17;;;;;;;30.43;41.53;100298.16;1479492;87;22234;-93
2022/07/04 08:09:41;;;;;;;13.90;4.03;;;;;;;30.55;40.75;100299.17;1485543;88;21485;-93
2022/07/04 08:12:09;;;;;;;7.12;5.33;;;;;;;30.65;40.28;100294.20;1457441;87;22884;-93
2022/07/04 08:14:36;;;;;;;11.53;4.95;;;;;;;30.77;40.46;100296.02;1491854;86;21338;-92
2022/07/04 08:17:06;;;;;;;7.15;5.15;;;;;;;30.83;39.86;100289.44;1493518;87;23312;-93
2022/07/04 08:19:33;;;;;;;8.50;4.58;;;;;;;30.78;39.39;100293.53;1488752;87;21513;-93
2022/07/04 08:22:02;;;;;;;11.55;4.53;;;;;;;30.86;39.85;100290.78;1476229;86;22639;-94
2022/07/04 08:24:31;;;;;;;8.55;4.37;;;;;;;31.03;40.09;100293.35;1474013;88;21337;-93
2022/07/04 08:26:58;;;;;;;11.48;4.58;;;;;;;31.26;40.26;100289.59;1459506;88;21552;-92
2022/07/04 08:29:31;;;;;;;11.88;4.97;;;;;;;31.40;39.70;100297.40;1436505;88;22499;-93
2022/07/04 08:31:57;;;;;;;9.93;4.58;;;;;;;31.52;39.05;100289.35;1480260;87;21456;-93
2022/07/04 08:34:25;;;;;;;16.30;4.90;;;;;;;31.63;38.54;100287.58;1478686;87;22504;-94
2022/07/04 08:36:52;;;;;;;15.78;5.03;;;;;;;31.79;38.19;100289.55;1461266;87;22416;-92
2022/07/04 08:39:20;;;;;;;14.47;4.20;;;;;;;31.96;37.74;100285.56;1461195;87;22343;-92
2022/07/04 08:41:54;;;;;;;10.48;5.20;;;;;;;32.16;37.89;100296.23;1459262;87;22659;-92
2022/07/04 08:44:25;;;;;;;9.30;4.17;;;;;;;32.32;37.90;100292.17;1474100;87;21374;-92
2022/07/04 08:46:54;;;;;;;17.07;4.65;;;;;;;32.30;35.98;100291.64;1480697;87;21360;-92
2022/07/04 08:49:26;;;;;;;7.60;4.67;;;;;;;32.28;36.64;100289.78;1488493;87;21632;-93
2022/07/04 08:51:58;;;;;;;10.50;4.70;;;;;;;32.42;36.90;100294.50;1473996;87;21574;-92
2022/07/04 09:00:08;;;;;;;;;;;;;;;32.63;36.24;100293.12;1452942;88;22544;-93
2022/07/04 09:02:43;;;;;;;11.13;3.73;;;;;;;32.73;34.40;100288.02;1459072;87;20386;-94
2022/07/04 09:05:12;;;;;;;4.35;3.60;;;;;;;32.81;34.19;100286.78;1460853;87;22110;-94
2022/07/04 09:07:41;;;;;;;9.25;3.85;;;;;;;32.86;34.23;100287.80;1454327;87;22439;-92
2022/07/04 09:10:09;;;;;;;10.70;4.28;;;;;;;32.92;34.15;100286.06;1485959;87;22460;-92
2022/07/04 09:12:36;;;;;;;10.80;4.30;;;;;;;33.02;33.90;100279.05;1473330;87;22022;-92
2022/07/04 09:15:06;;;;;;;9.30;3.55;;;;;;;33.08;33.62;100270.17;1461660;87;22580;-93
2022/07/04 09:17:34;;;;;;;15.55;3.85;;;;;;;33.11;33.18;100270.94;1478942;87;21419;-93
2022/07/04 09:20:19;;;;;;;13.40;4.53;;;;;;;33.23;33.35;100273.19;1475461;88;21397;-92
2022/07/04 09:22:49;;;;;;;10.58;3.40;;;;;;;33.32;31.61;100267.81;1478168;87;21551;-93
2022/07/04 09:25:17;;;;;;;11.15;3.40;;;;;;;33.39;32.12;100270.98;1371648;91;21382;-91
2022/07/04 09:27:51;;;;;;;8.25;3.42;;;;;;;33.41;32.52;100271.50;1486234;88;21434;-91
2022/07/04 09:30:24;;;;;;;14.23;4.08;;;;;;;33.50;32.29;100270.23;1478353;87;22329;-91
2022/07/04 09:32:59;;;;;;;7.05;3.80;;;;;;;33.64;31.72;100266.39;1483337;87;21507;-91
2022/07/04 09:35:29;;;;;;;14.85;3.62;;;;;;;33.74;31.72;100263.17;1489931;86;21455;-89
2022/07/04 09:38:01;;;;;;;15.23;4.22;;;;;;;33.80;31.27;100264.69;1492467;87;21506;-91
2022/07/04 09:41:24;;;;;;;13.22;4.58;;;;;;;33.29;30.99;100262.41;1494224;87;21389;-94
2022/07/04 09:43:12;;;;;;;8.20;3.47;;;;;;;33.52;31.83;100260.61;1474821;86;21403;-93
2022/07/04 09:45:57;;;;;;;4.92;2.37;;;;;;;33.67;31.57;100258.92;1492799;86;22469;-94
2022/07/04 09:48:25;;;;;;;9.50;2.62;;;;;;;33.83;30.21;100262.70;1490176;86;22668;-93
2022/07/04 09:50:53;;;;;;;12.55;2.30;;;;;;;34.01;29.07;100262.30;1481642;87;21626;-93
2022/07/04 09:53:25;;;;;;;12.23;3.30;;;;;;;34.14;28.66;100262.31;1458992;89;21463;-94
2022/07/04 09:55:53;;;;;;;14.83;3.22;;;;;;;34.26;28.65;100255.46;1460597;89;21548;-93
2022/07/04 09:58:20;;;;;;;9.53;3.10;;;;;;;34.39;28.93;100260.11;1458533;89;22497;-93
2022/07/04 10:00:49;;;;;;;5.78;2.72;;;;;;;34.31;28.39;100253.98;1460772;89;21488;-93
2022/07/04 10:03:30;;;;;;;9.33;2.60;;;;;;;34.21;27.25;100250.08;1466619;88;21494;-93
2022/07/04 10:06:15;;;;;;;5.28;2.65;;;;;;;34.08;26.12;100252.56;1454534;89;22321;-94
2022/07/04 10:08:43;;;;;;;8.25;2.60;;;;;;;34.10;26.89;100259.14;1451332;90;21419;-93
2022/07/04 10:11:11;;;;;;;10.00;3.58;;;;;;;34.19;27.93;100250.41;1451098;90;21398;-94
2022/07/04 10:13:39;;;;;;;15.45;2.87;;;;;;;34.14;26.90;100244.46;1448247;90;21494;-93
2022/07/04 10:16:07;;;;;;;5.90;2.20;;;;;;;34.41;27.56;100249.59;1418601;89;23383;-94
2022/07/04 10:18:36;;;;;;;9.73;2.98;;;;;;;34.59;27.72;100256.89;1462581;87;21426;-94
2022/07/04 10:21:03;;;;;;;16.23;2.55;;;;;;;34.70;26.41;100257.45;1441680;87;21492;-93
2022/07/04 10:23:32;;;;;;;5.30;2.10;;;;;;;34.66;26.14;100251.52;1456659;87;21396;-93
2022/07/04 10:25:59;;;;;;;2.47;2.10;;;;;;;34.71;25.43;100252.77;1486371;87;21390;-93
2022/07/04 10:28:27;;;;;;;4.70;2.40;;;;;;;34.92;26.56;100252.48;1475815;87;21617;-94
2022/07/04 10:30:57;;;;;;;9.23;2.70;;;;;;;35.11;26.25;100247.36;1470691;87;21555;-93
2022/07/04 10:33:27;;;;;;;11.43;2.45;;;;;;;35.25;26.00;100238.44;1485911;87;21941;-94
2022/07/04 10:36:03;;;;;;;5.92;2.42;;;;;;;35.07;25.19;100238.10;1483448;87;22379;-92
2022/07/04 10:38:34;;;;;;;12.15;2.30;;;;;;;34.93;24.81;100234.88;1494078;87;21367;-93
2022/07/04 10:41:06;;;;;;;6.55;2.35;;;;;;;34.81;24.71;100232.70;1494233;87;21360;-93
2022/07/04 10:46:23;;;;;;;6.80;2.17;;;;;;;35.15;24.99;100227.71;1489689;85;21537;-94
2022/07/04 10:49:16;;;;;;;9.43;2.05;;;;;;;35.08;24.00;100223.25;1466351;86;21330;-93
2022/07/04 10:51:56;;;;;;;2.87;2.08;;;;;;;35.25;24.88;100231.00;1465103;89;21472;-93
2022/07/04 10:54:37;;;;;;;11.53;2.62;;;;;;;35.35;25.03;100225.76;1460426;87;21352;-92
2022/07/04 10:57:24;;;;;;;15.63;2.45;;;;;;;35.47;24.89;100224.58;1478363;86;21513;-92
2022/07/04 11:00:01;;;;;;;7.78;2.40;;;;;;;35.64;24.31;100230.72;1478617;88;21397;-92
2022/07/04 11:02:31;;;;;;;6.60;2.42;;;;;;;35.82;24.21;100226.63;1487519;87;21404;-93
2022/07/04 11:05:11;;;;;;;25.88;3.10;;;;;;;35.93;23.80;100227.36;1486580;87;21316;-92
2022/07/04 11:07:44;;;;;;;13.30;2.25;;;;;;;35.96;23.51;100229.23;1494898;87;21338;-93
2022/07/04 11:10:26;;;;;;;11.30;2.08;;;;;;;35.93;23.00;100224.61;1486501;86;21330;-92
2022/07/04 11:13:01;;;;;;;6.67;2.22;;;;;;;35.86;23.75;100216.03;1481726;87;21626;-93
2022/07/04 11:15:36;;;;;;;6.70;2.35;;;;;;;35.65;22.76;100213.64;1500555;87;21438;-93
2022/07/04 11:18:09;;;;;;;9.63;2.35;;;;;;;35.68;23.38;100211.65;1485541;86;21420;-92
2022/07/04 11:20:39;;;;;;;4.62;2.17;;;;;;;35.89;23.59;100209.87;1465355;88;21470;-94
2022/07/04 11:23:09;;;;;;;6.85;1.90;;;;;;;35.99;23.20;100194.16;1459292;87;21866;-93
2022/07/04 11:25:37;;;;;;;3.85;1.70;;;;;;;36.09;22.52;100200.77;1479860;86;22336;-93
2022/07/04 11:28:25;;;;;;;2.85;1.82;;;;;;;36.09;22.10;100198.02;1460022;87;21881;-93
2022/07/04 11:31:00;;;;;;;20.62;2.00;;;;;;;36.11;21.85;100189.67;1501869;86;21544;-92
2022/07/04 11:33:32;;;;;;;12.73;1.98;;;;;;;36.13;22.15;100192.09;1500912;86;21337;-94
2022/07/04 11:36:20;;;;;;;8.20;2.17;;;;;;;36.23;22.74;100190.39;1473055;86;21450;-94
2022/07/04 11:39:06;;;;;;;5.80;2.03;;;;;;;36.31;22.70;100193.70;1499351;86;21441;-95
2022/07/04 11:47:36;;;;;;;8.93;2.25;;;;;;;36.64;22.89;100179.39;1477029;87;21508;-94
2022/07/04 11:50:11;;;;;;;6.17;2.10;;;;;;;36.75;21.90;100173.77;1478647;87;21553;-95
2022/07/04 11:52:46;;;;;;;5.83;2.42;;;;;;;36.75;21.72;100172.39;1483577;87;22521;-94
2022/07/04 11:55:16;;;;;;;3.20;2.02;;;;;;;36.82;19.92;100177.38;1481976;87;22631;-94